Terminal Aerodrome Forecast
Issued by NWS Pueblo, CO

Home | Current Version | Previous Version | Text Only | Print | Product List | Glossary On
Versions: 1 2 3 4 5 6 7 8 9 10 11 12 13 14 15 16 17 18 19 20 21 22 23 24 25 26
000
FTUS45 KPUB 222337
TAFPUB
TAF
KPUB 222337Z 2300/2324 13009KT P6SM VCTS SCT090CB BKN150
      TEMPO 2300/2302 VRB20G30KT BKN080CB
     FM230300 06007KT P6SM SCT120 BKN200
     FM230900 VRB06KT P6SM SCT200
     FM231600 16008KT P6SM FEW120 SCT200
     FM232100 13012KT P6SM VCTS SCT090CB BKN200=

USA.gov is the U.S. government's official web portal to all federal, state and local government web resources and services.